createdAt,value
2022-08-07T00:01:43.071Z,1.60
2022-08-07T00:03:53.278Z,2.73
2022-08-07T00:06:29.499Z,1.63
2022-08-07T00:09:16.615Z,1.97
2022-08-07T00:11:54.519Z,1.57
2022-08-07T00:14:30.319Z,1.50
2022-08-07T00:17:02.611Z,1.43
2022-08-07T00:19:56.048Z,1.90
2022-08-07T00:22:24.441Z,1.33
2022-08-07T00:25:04.867Z,1.73
2022-08-07T00:27:35.937Z,1.53
2022-08-07T00:30:26.381Z,1.60
2022-08-07T00:32:56.361Z,1.27
2022-08-07T00:35:23.299Z,1.40
2022-08-07T00:37:51.265Z,1.50
2022-08-07T00:40:36.986Z,2.00
2022-08-07T00:43:09.763Z,1.53
2022-08-07T00:45:40.761Z,1.57
2022-08-07T00:48:10.932Z,2.17
2022-08-07T00:50:50.375Z,1.43
2022-08-07T00:53:20.239Z,1.80
2022-08-07T00:56:03.276Z,1.50
2022-08-07T00:58:32.607Z,2.07
2022-08-07T01:00:59.762Z,1.33
2022-08-07T01:03:54.823Z,1.77
2022-08-07T01:06:14.676Z,1.50
2022-08-07T01:08:52.071Z,1.67
2022-08-07T01:12:09.621Z,1.50
2022-08-07T01:14:09.140Z,2.13
2022-08-07T01:16:36.895Z,1.63
2022-08-07T01:19:18.044Z,2.17
2022-08-07T01:21:47.321Z,1.50
2022-08-07T01:24:18.684Z,1.97
2022-08-07T01:26:52.808Z,1.67
2022-08-07T01:29:23.463Z,1.80
2022-08-07T01:31:55.516Z,2.00
2022-08-07T01:34:30.604Z,2.03
2022-08-07T01:36:58.570Z,1.80
2022-08-07T01:39:41.135Z,2.07
2022-08-07T01:42:39.658Z,1.90
2022-08-07T01:45:03.791Z,1.60
2022-08-07T01:48:19.744Z,1.63
2022-08-07T01:50:28.577Z,1.80
2022-08-07T01:52:58.874Z,1.60
2022-08-07T01:55:34.193Z,2.00
2022-08-07T01:58:29.145Z,1.70
2022-08-07T02:01:10.012Z,2.10
2022-08-07T02:03:53.726Z,1.43
2022-08-07T02:06:31.234Z,1.80
2022-08-07T02:09:01.608Z,2.03
2022-08-07T02:12:03.868Z,1.90
2022-08-07T02:14:40.172Z,2.20
2022-08-07T02:17:11.009Z,2.00
2022-08-07T02:20:04.549Z,2.20
2022-08-07T02:22:31.176Z,2.20
2022-08-07T02:24:59.601Z,1.80
2022-08-07T02:27:34.650Z,2.20
2022-08-07T02:30:03.549Z,2.00
2022-08-07T02:32:33.676Z,2.33
2022-08-07T02:35:06.215Z,2.00
2022-08-07T02:37:44.000Z,2.20
2022-08-07T02:40:30.823Z,1.80
2022-08-07T02:43:00.201Z,2.50
2022-08-07T02:46:00.593Z,2.20
2022-08-07T02:48:16.247Z,1.93
2022-08-07T02:50:46.926Z,2.57
2022-08-07T02:53:21.754Z,2.23
2022-08-07T02:56:04.340Z,2.70
2022-08-07T02:58:33.907Z,2.30
2022-08-07T03:01:03.129Z,2.90
2022-08-07T03:03:49.156Z,2.17
2022-08-07T03:06:25.630Z,2.37
2022-08-07T03:09:00.673Z,2.77
2022-08-07T03:11:28.408Z,2.60
2022-08-07T03:13:57.595Z,3.10
2022-08-07T03:16:30.498Z,3.27
2022-08-07T03:19:01.541Z,2.93
2022-08-07T03:21:32.882Z,3.10
2022-08-07T03:24:20.754Z,3.63
2022-08-07T03:26:58.185Z,2.90
2022-08-07T03:29:31.694Z,3.17
2022-08-07T03:32:04.403Z,3.53
2022-08-07T03:34:33.130Z,3.40
2022-08-07T03:37:12.208Z,3.33
2022-08-07T03:39:46.266Z,3.17
2022-08-07T03:42:26.779Z,2.60
2022-08-07T03:44:57.783Z,3.10
2022-08-07T03:47:26.130Z,2.80
2022-08-07T03:50:00.203Z,2.70
2022-08-07T03:52:29.860Z,2.67
2022-08-07T03:55:06.722Z,2.37
2022-08-07T03:58:33.924Z,2.83
2022-08-07T04:00:30.246Z,2.70
2022-08-07T04:03:03.773Z,3.30
2022-08-07T04:05:40.768Z,3.10
2022-08-07T04:08:16.217Z,3.60
2022-08-07T04:10:54.514Z,3.07
2022-08-07T04:14:10.978Z,3.83
2022-08-07T04:16:31.122Z,3.77
2022-08-07T04:19:01.718Z,3.10
2022-08-07T04:21:33.383Z,3.60
2022-08-07T04:24:07.319Z,3.57
2022-08-07T04:26:35.122Z,3.40
2022-08-07T04:29:03.115Z,3.50
2022-08-07T04:32:02.702Z,4.30
2022-08-07T04:34:27.559Z,3.33
2022-08-07T04:37:01.080Z,3.10
2022-08-07T04:39:35.699Z,2.80
2022-08-07T04:42:04.178Z,3.03
2022-08-07T04:44:31.173Z,2.60
2022-08-07T04:47:56.760Z,2.80
2022-08-07T04:50:19.590Z,2.43
2022-08-07T04:53:03.425Z,3.03
2022-08-07T04:58:11.029Z,2.80
2022-08-07T04:59:18.464Z,3.20
2022-08-07T05:01:57.983Z,3.47
2022-08-07T05:04:47.111Z,2.87
2022-08-07T05:07:30.366Z,2.50
2022-08-07T05:10:19.719Z,2.57
2022-08-07T05:12:58.397Z,2.23
2022-08-07T05:15:35.556Z,2.37
2022-08-07T05:18:09.275Z,2.83
2022-08-07T05:20:43.916Z,2.20
2022-08-07T05:23:16.517Z,2.37
2022-08-07T05:26:10.782Z,2.10
2022-08-07T05:28:35.229Z,2.13
2022-08-07T05:31:03.799Z,2.30
2022-08-07T05:33:35.348Z,2.10
2022-08-07T05:36:04.846Z,2.30
2022-08-07T05:39:01.140Z,2.20
2022-08-07T05:41:21.714Z,2.17
2022-08-07T05:44:08.999Z,2.20
2022-08-07T05:46:42.954Z,2.67
2022-08-07T05:49:14.448Z,2.60
2022-08-07T05:51:46.921Z,2.10
2022-08-07T05:54:44.203Z,2.43
2022-08-07T05:57:04.054Z,2.17
2022-08-07T05:59:38.965Z,2.30
2022-08-07T06:02:28.741Z,2.27
2022-08-07T06:05:01.338Z,2.30
2022-08-07T06:08:12.339Z,2.47
2022-08-07T06:10:19.192Z,2.60
2022-08-07T06:12:47.615Z,2.20
2022-08-07T06:15:16.437Z,2.70
2022-08-07T06:17:53.658Z,2.10
2022-08-07T06:20:25.594Z,2.73
2022-08-07T06:23:46.465Z,2.40
2022-08-07T06:25:59.986Z,2.57
2022-08-07T06:28:28.431Z,2.83
2022-08-07T06:30:56.298Z,2.37
2022-08-07T06:33:25.842Z,2.63
2022-08-07T06:36:11.915Z,2.87
2022-08-07T06:38:58.634Z,2.83
2022-08-07T06:42:00.829Z,2.50
2022-08-07T06:44:31.000Z,2.30
2022-08-07T06:47:12.086Z,3.17
2022-08-07T06:49:51.793Z,2.60
2022-08-07T06:52:31.918Z,2.70
2022-08-07T06:55:32.147Z,2.90
2022-08-07T06:58:00.592Z,2.40
2022-08-07T07:00:34.859Z,3.17
2022-08-07T07:03:08.626Z,3.87
2022-08-07T07:06:02.385Z,3.47
2022-08-07T07:08:31.046Z,3.60
2022-08-07T07:11:01.164Z,3.70
2022-08-07T07:13:58.248Z,3.17
2022-08-07T07:16:33.970Z,3.27
2022-08-07T07:19:54.378Z,2.80
2022-08-07T07:22:11.689Z,3.27
2022-08-07T07:24:56.654Z,2.70
2022-08-07T07:27:35.708Z,2.93
2022-08-07T07:30:32.419Z,2.97
2022-08-07T07:33:02.772Z,3.03
2022-08-07T07:35:33.357Z,2.90
2022-08-07T07:38:05.741Z,2.90
2022-08-07T07:40:34.183Z,2.70
2022-08-07T07:43:15.306Z,2.33
2022-08-07T07:46:36.561Z,2.40
2022-08-07T07:48:36.534Z,2.23
2022-08-07T07:51:07.689Z,2.60
2022-08-07T07:53:51.884Z,2.10
2022-08-07T07:56:30.370Z,2.03
2022-08-07T07:59:02.773Z,2.30
2022-08-07T08:02:03.891Z,2.10
2022-08-07T08:04:25.801Z,2.10
2022-08-07T08:06:54.667Z,2.37
2022-08-07T08:09:29.523Z,2.33
2022-08-07T08:12:02.374Z,2.10
2022-08-07T08:14:32.556Z,2.30
2022-08-07T08:17:56.033Z,2.33
2022-08-07T08:20:17.976Z,2.30
2022-08-07T08:23:00.434Z,2.57
2022-08-07T08:25:49.969Z,2.57
2022-08-07T08:28:24.026Z,2.23
2022-08-07T08:31:16.061Z,3.30
2022-08-07T08:33:48.964Z,2.17
2022-08-07T08:36:25.628Z,2.30
2022-08-07T08:39:00.085Z,2.40
2022-08-07T08:41:57.286Z,2.40
2022-08-07T08:44:48.615Z,2.80
2022-08-07T08:47:31.431Z,2.20
2022-08-07T08:50:34.918Z,2.00
2022-08-07T08:53:31.655Z,2.03
2022-08-07T08:56:25.675Z,2.13
2022-08-07T08:59:06.329Z,2.37
2022-08-07T09:02:04.449Z,2.10
2022-08-07T09:04:49.259Z,1.90
2022-08-07T09:07:46.272Z,2.13
2022-08-07T09:10:32.944Z,2.00
2022-08-07T09:13:09.537Z,1.80
2022-08-07T09:16:25.844Z,2.00
2022-08-07T09:19:51.731Z,2.00
2022-08-07T09:24:32.872Z,2.23
2022-08-07T09:25:25.329Z,2.40
2022-08-07T09:28:04.027Z,2.27
2022-08-07T09:30:57.092Z,2.10
2022-08-07T09:34:01.075Z,1.80
2022-08-07T09:36:59.936Z,1.83
2022-08-07T09:39:57.926Z,2.10
2022-08-07T09:42:46.715Z,1.87
2022-08-07T09:47:25.693Z,2.23
2022-08-07T09:48:50.329Z,2.80
2022-08-07T09:52:15.458Z,1.73
2022-08-07T09:54:49.465Z,1.90
2022-08-07T09:57:36.629Z,2.03
2022-08-07T10:00:14.821Z,1.77
2022-08-07T10:04:03.642Z,1.80
2022-08-07T10:06:26.611Z,2.30
2022-08-07T10:09:00.303Z,2.00
2022-08-07T10:12:03.154Z,1.97
2022-08-07T10:15:15.283Z,1.83
2022-08-07T10:18:26.647Z,1.67
2022-08-07T10:20:54.556Z,1.83
2022-08-07T10:24:04.787Z,1.50
2022-08-07T10:27:01.244Z,1.63
2022-08-07T10:30:06.503Z,2.10
2022-08-07T10:32:53.525Z,1.73
2022-08-07T10:35:55.547Z,1.67
2022-08-07T10:38:35.942Z,2.00
2022-08-07T10:41:47.127Z,1.53
2022-08-07T10:44:37.460Z,1.90
2022-08-07T10:47:50.722Z,1.77
2022-08-07T10:51:07.499Z,1.50
2022-08-07T10:54:13.453Z,1.80
2022-08-07T10:56:59.531Z,1.80
2022-08-07T10:59:58.352Z,1.57
2022-08-07T11:02:55.031Z,1.87
2022-08-07T11:05:50.941Z,1.80
2022-08-07T11:08:40.316Z,1.80
2022-08-07T11:11:24.481Z,1.40
2022-08-07T11:14:43.941Z,1.37
2022-08-07T11:17:01.263Z,1.93
2022-08-07T11:19:43.912Z,1.40
2022-08-07T11:22:32.288Z,1.50
2022-08-07T11:25:25.856Z,1.40
2022-08-07T11:28:04.876Z,1.80
2022-08-07T11:30:48.315Z,1.70
2022-08-07T11:33:58.610Z,1.20
2022-08-07T11:36:30.574Z,1.60
2022-08-07T11:39:20.498Z,1.60
2022-08-07T11:42:29.837Z,1.40
2022-08-07T11:45:06.938Z,1.50
2022-08-07T11:47:56.595Z,1.60
2022-08-07T11:51:08.938Z,1.40
2022-08-07T11:54:10.150Z,1.47
2022-08-07T11:57:18.934Z,1.83
2022-08-07T12:00:20.043Z,1.80
2022-08-07T12:03:03.663Z,1.33
2022-08-07T12:05:49.832Z,2.17
2022-08-07T12:08:45.581Z,1.80
2022-08-07T12:11:32.582Z,1.50
2022-08-07T12:14:10.904Z,2.10
2022-08-07T12:16:47.525Z,1.67
2022-08-07T12:19:35.677Z,1.60
2022-08-07T12:22:58.931Z,1.60
2022-08-07T12:26:22.810Z,1.80
2022-08-07T12:29:37.776Z,1.70
2022-08-07T12:32:30.023Z,1.50
2022-08-07T12:34:59.330Z,1.40
2022-08-07T12:38:09.624Z,1.77
2022-08-07T12:40:46.658Z,1.67
2022-08-07T12:43:11.725Z,2.10
2022-08-07T12:46:07.400Z,1.90
2022-08-07T12:48:52.860Z,1.60
2022-08-07T12:51:46.703Z,2.10
2022-08-07T12:54:54.688Z,1.60
2022-08-07T12:57:38.831Z,1.63
2022-08-07T13:00:20.841Z,1.60
2022-08-07T13:03:08.541Z,1.60
2022-08-07T13:06:21.414Z,1.63
2022-08-07T13:08:56.650Z,1.40
2022-08-07T13:12:02.229Z,1.20
2022-08-07T13:14:36.332Z,1.90
2022-08-07T13:17:44.144Z,1.63
2022-08-07T13:20:31.027Z,1.60
2022-08-07T13:24:02.146Z,1.70
2022-08-07T13:26:19.973Z,1.57
2022-08-07T13:29:12.402Z,1.37
2022-08-07T13:32:31.348Z,1.47
2022-08-07T13:35:01.048Z,1.77
2022-08-07T13:37:55.407Z,1.57
2022-08-07T13:40:35.230Z,1.77
2022-08-07T13:43:13.004Z,1.80
2022-08-07T13:46:11.104Z,1.80
2022-08-07T13:48:34.559Z,1.60
2022-08-07T13:51:27.026Z,1.20
2022-08-07T13:54:00.874Z,1.77
2022-08-07T13:56:36.084Z,1.43
2022-08-07T13:59:20.544Z,1.53
2022-08-07T14:02:05.013Z,1.80
2022-08-07T14:04:38.139Z,1.77
2022-08-07T14:07:15.778Z,1.97
2022-08-07T14:10:12.412Z,1.60
2022-08-07T14:12:58.628Z,1.67
2022-08-07T14:15:40.354Z,1.80
2022-08-07T14:18:27.691Z,2.23
2022-08-07T14:22:00.707Z,1.70
2022-08-07T14:24:06.465Z,1.50
2022-08-07T14:26:50.513Z,1.67
2022-08-07T14:30:06.320Z,1.80
2022-08-07T14:32:12.931Z,1.93
2022-08-07T14:34:46.350Z,1.70
2022-08-07T14:37:36.341Z,1.67
2022-08-07T14:40:17.708Z,1.67
2022-08-07T14:43:57.986Z,1.90
2022-08-07T14:45:54.659Z,1.97
2022-08-07T14:48:27.262Z,2.10
2022-08-07T14:50:57.954Z,1.60
2022-08-07T14:54:05.880Z,1.90
2022-08-07T14:56:30.422Z,2.37
2022-08-07T14:59:02.056Z,2.20
2022-08-07T15:01:42.949Z,1.70
2022-08-07T15:04:19.187Z,1.53
2022-08-07T15:06:48.907Z,1.90
2022-08-07T15:09:59.833Z,2.30
2022-08-07T15:15:21.417Z,1.90
2022-08-07T15:17:57.296Z,1.90
2022-08-07T15:20:54.653Z,2.03
2022-08-07T15:26:21.075Z,1.60
2022-08-07T15:32:00.618Z,1.60
2022-08-07T15:34:35.650Z,1.70
2022-08-07T15:37:08.252Z,2.30
2022-08-07T15:39:56.441Z,2.47
2022-08-07T15:42:48.265Z,2.00
2022-08-07T15:45:25.044Z,1.67
2022-08-07T15:48:20.614Z,1.67
2022-08-07T15:51:08.739Z,2.20
2022-08-07T15:53:52.927Z,1.90
2022-08-07T15:56:24.260Z,1.80
2022-08-07T15:58:58.902Z,2.03
2022-08-07T16:01:39.097Z,2.33
2022-08-07T16:04:15.499Z,1.90
2022-08-07T16:06:52.632Z,1.90
2022-08-07T16:09:42.417Z,1.97
2022-08-07T16:12:38.981Z,1.73
2022-08-07T16:15:58.059Z,1.90
2022-08-07T16:18:50.838Z,1.77
2022-08-07T16:21:53.952Z,2.10
2022-08-07T16:24:34.628Z,1.93
2022-08-07T16:27:40.232Z,2.10
2022-08-07T16:30:31.070Z,1.80
2022-08-07T16:34:02.029Z,2.20
2022-08-07T16:37:01.628Z,1.80
2022-08-07T16:39:50.986Z,2.07
2022-08-07T16:42:28.885Z,1.90
2022-08-07T16:45:14.674Z,2.40
2022-08-07T16:48:53.790Z,2.20
2022-08-07T16:52:01.928Z,2.37
2022-08-07T16:54:54.182Z,2.33
2022-08-07T16:58:01.557Z,2.50
2022-08-07T17:00:29.276Z,2.20
2022-08-07T17:03:19.099Z,2.30
2022-08-07T17:06:46.468Z,2.10
2022-08-07T17:10:06.594Z,2.30
2022-08-07T17:12:43.853Z,1.97
2022-08-07T17:15:15.785Z,2.47
2022-08-07T17:17:49.030Z,2.37
2022-08-07T17:20:37.360Z,1.90
2022-08-07T17:23:22.780Z,2.17
2022-08-07T17:26:24.132Z,2.37
2022-08-07T17:29:09.559Z,2.30
2022-08-07T17:32:30.361Z,2.70
2022-08-07T17:35:49.578Z,1.93
2022-08-07T17:38:32.085Z,2.43
2022-08-07T17:42:02.165Z,2.50
2022-08-07T17:44:08.354Z,2.50
2022-08-07T17:46:58.578Z,2.20
2022-08-07T17:49:30.130Z,2.97
2022-08-07T17:52:12.876Z,2.20
2022-08-07T17:54:54.136Z,2.47
2022-08-07T17:57:56.711Z,3.17
2022-08-07T18:00:34.232Z,2.47
2022-08-07T18:03:28.784Z,2.80
2022-08-07T18:06:38.207Z,2.87
2022-08-07T18:09:08.739Z,2.50
2022-08-07T18:12:06.567Z,3.33
2022-08-07T18:14:45.030Z,2.20
2022-08-07T18:18:46.613Z,2.20
2022-08-07T18:21:06.592Z,2.63
2022-08-07T18:23:43.563Z,2.80
2022-08-07T18:26:20.005Z,2.70
2022-08-07T18:30:06.594Z,2.30
2022-08-07T18:32:21.096Z,2.93
2022-08-07T18:35:51.508Z,2.80
2022-08-07T18:38:56.078Z,2.50
2022-08-07T18:41:46.376Z,2.83
2022-08-07T18:45:43.341Z,2.77
2022-08-07T18:48:08.505Z,2.97
2022-08-07T18:50:47.878Z,3.37
2022-08-07T18:53:39.238Z,2.70
2022-08-07T18:56:37.657Z,2.50
2022-08-07T18:59:47.704Z,3.10
2022-08-07T19:02:42.662Z,3.27
2022-08-07T19:05:20.945Z,3.40
2022-08-07T19:08:04.002Z,2.97
2022-08-07T19:10:51.288Z,3.00
2022-08-07T19:13:44.242Z,3.17
2022-08-07T19:17:04.303Z,3.10
2022-08-07T19:19:50.918Z,3.33
2022-08-07T19:22:36.837Z,3.23
2022-08-07T19:26:24.957Z,3.17
2022-08-07T19:29:02.825Z,3.30
2022-08-07T19:31:38.207Z,3.23
2022-08-07T19:33:56.512Z,2.50
2022-08-07T19:36:28.237Z,2.70
2022-08-07T19:39:00.409Z,3.13
2022-08-07T19:42:08.092Z,3.13
2022-08-07T19:44:38.349Z,2.93
2022-08-07T19:47:11.715Z,3.37
2022-08-07T19:49:58.515Z,3.07
2022-08-07T19:52:31.098Z,3.10
2022-08-07T19:54:59.972Z,2.90
2022-08-07T19:58:02.755Z,3.10
2022-08-07T20:00:29.731Z,3.50
2022-08-07T20:03:33.481Z,3.00
2022-08-07T20:06:03.069Z,3.23
2022-08-07T20:08:48.925Z,3.03
2022-08-07T20:11:34.045Z,3.07
2022-08-07T20:14:20.540Z,2.40
2022-08-07T20:16:54.369Z,3.50
2022-08-07T20:19:25.157Z,2.67
2022-08-07T20:21:57.170Z,3.20
2022-08-07T20:24:31.716Z,2.90
2022-08-07T20:27:02.401Z,3.30
2022-08-07T20:29:47.951Z,3.20
2022-08-07T20:32:46.408Z,3.20
2022-08-07T20:35:22.016Z,2.87
2022-08-07T20:37:59.570Z,2.87
2022-08-07T20:40:32.909Z,2.80
2022-08-07T20:43:02.373Z,3.20
2022-08-07T20:46:25.794Z,2.80
2022-08-07T20:48:28.794Z,2.77
2022-08-07T20:51:00.164Z,2.70
2022-08-07T20:54:03.730Z,2.90
2022-08-07T20:56:16.580Z,3.50
2022-08-07T20:58:54.207Z,3.03
2022-08-07T21:01:23.200Z,3.50
2022-08-07T21:04:13.364Z,3.20
2022-08-07T21:06:53.131Z,2.90
2022-08-07T21:09:24.479Z,3.20
2022-08-07T21:12:00.427Z,2.90
2022-08-07T21:14:34.205Z,3.20
2022-08-07T21:18:02.674Z,3.03
2022-08-07T21:20:06.419Z,3.50
2022-08-07T21:22:45.152Z,3.43
2022-08-07T21:25:29.019Z,3.90
2022-08-07T21:28:13.546Z,3.23
2022-08-07T21:31:11.127Z,3.63
2022-08-07T21:33:48.219Z,3.70
2022-08-07T21:36:40.068Z,3.60
2022-08-07T21:39:45.525Z,3.60
2022-08-07T21:42:59.923Z,3.00
2022-08-07T21:46:05.398Z,3.17
2022-08-07T21:48:57.073Z,3.63
2022-08-07T21:51:57.747Z,4.47
2022-08-07T21:54:50.112Z,3.37
2022-08-07T21:57:44.776Z,3.30
2022-08-07T22:00:22.940Z,3.23
2022-08-07T22:02:58.112Z,3.30
2022-08-07T22:05:45.656Z,3.60
2022-08-07T22:08:20.974Z,3.53
2022-08-07T22:10:53.916Z,3.87
2022-08-07T22:13:23.861Z,3.37
2022-08-07T22:16:41.978Z,3.30
2022-08-07T22:19:29.970Z,2.80
2022-08-07T22:22:20.827Z,3.20
2022-08-07T22:25:11.098Z,3.00
2022-08-07T22:28:30.214Z,3.23
2022-08-07T22:30:58.418Z,3.43
2022-08-07T22:33:52.521Z,3.20
2022-08-07T22:36:47.631Z,2.77
2022-08-07T22:39:53.199Z,3.30
2022-08-07T22:42:29.327Z,3.30
2022-08-07T22:45:02.353Z,3.50
2022-08-07T22:48:01.097Z,3.60
2022-08-07T22:51:02.143Z,3.67
2022-08-07T22:54:07.874Z,3.30
2022-08-07T22:56:58.330Z,3.10
2022-08-07T22:59:45.631Z,2.60
2022-08-07T23:02:51.136Z,4.13
2022-08-07T23:06:08.405Z,3.27
2022-08-07T23:08:51.631Z,3.00
2022-08-07T23:12:10.342Z,3.13
2022-08-07T23:15:10.951Z,3.07
2022-08-07T23:18:22.654Z,3.30
2022-08-07T23:21:16.271Z,2.90
2022-08-07T23:24:05.291Z,3.47
2022-08-07T23:26:59.427Z,3.60
2022-08-07T23:30:38.008Z,3.23
2022-08-07T23:34:21.451Z,3.20
2022-08-07T23:36:29.183Z,3.67
2022-08-07T23:39:12.112Z,3.40
2022-08-07T23:42:09.604Z,3.57
2022-08-07T23:44:49.178Z,3.70
2022-08-07T23:47:48.098Z,3.40
2022-08-07T23:50:36.869Z,3.80
2022-08-07T23:53:49.540Z,3.27
2022-08-07T23:56:26.808Z,3.20
